Time;durP1;ratioP1;P1;durP2;ratioP2;P2;SDS_P1;SDS_P2;PMS_P1;PMS_P2;Temp;Humidity;BMP_temperature;BMP_pressure;BME280_temperature;BME280_humidity;BME280_pressure;Samples;Min_cycle;Max_cycle;Signal;HPM_P1;HPM_P2
2023/10/26 00:01:04;;;;;;;0.00;0.00;;;12.70;99.90;;;;;;5092441;28;20531;-64
2023/10/26 00:03:29;;;;;;;0.00;0.00;;;12.70;99.90;;;;;;5091053;28;20665;-63
2023/10/26 00:05:55;;;;;;;0.00;0.00;;;12.70;99.90;;;;;;5092630;28;20180;-64
2023/10/26 00:08:20;;;;;;;0.00;0.00;;;12.70;99.90;;;;;;5092355;28;20176;-65
2023/10/26 00:10:46;;;;;;;0.00;0.00;;;12.70;99.90;;;;;;5091372;28;20180;-64
2023/10/26 00:13:12;;;;;;;0.00;0.00;;;12.70;99.90;;;;;;5092233;28;20315;-64
2023/10/26 00:15:37;;;;;;;0.00;0.00;;;12.70;99.90;;;;;;5092280;28;20702;-64
2023/10/26 00:18:03;;;;;;;0.00;0.00;;;12.70;99.90;;;;;;5092174;28;20184;-64
2023/10/26 00:20:28;;;;;;;0.00;0.00;;;12.70;99.90;;;;;;5092262;28;20243;-64
2023/10/26 00:22:54;;;;;;;0.00;0.00;;;12.70;99.90;;;;;;5092433;28;20540;-63
2023/10/26 00:25:20;;;;;;;0.03;0.03;;;12.70;99.90;;;;;;5091841;28;20655;-64
2023/10/26 00:27:45;;;;;;;0.00;0.00;;;12.70;99.90;;;;;;5091989;28;20187;-65
2023/10/26 00:30:11;;;;;;;0.00;0.00;;;12.70;99.90;;;;;;5092024;28;20177;-64
2023/10/26 00:32:37;;;;;;;0.00;0.00;;;12.60;99.90;;;;;;5092053;28;21180;-64
2023/10/26 00:35:03;;;;;;;0.00;0.00;;;12.60;99.90;;;;;;5092016;28;20226;-65
2023/10/26 00:37:30;;;;;;;0.00;0.00;;;12.60;99.90;;;;;;5091433;28;20335;-63
2023/10/26 00:39:55;;;;;;;0.00;0.00;;;12.60;99.90;;;;;;5091876;28;20636;-63
2023/10/26 00:42:21;;;;;;;0.00;0.00;;;12.60;99.90;;;;;;5091883;28;20179;-64
2023/10/26 00:44:46;;;;;;;0.00;0.00;;;12.60;99.90;;;;;;5090630;28;20639;-64
2023/10/26 00:47:14;;;;;;;0.00;0.00;;;12.60;99.90;;;;;;5091424;28;20180;-63
2023/10/26 00:49:43;;;;;;;0.00;0.00;;;12.60;99.90;;;;;;5091942;28;20168;-63
2023/10/26 00:52:10;;;;;;;0.00;0.00;;;12.50;99.90;;;;;;5091825;28;20186;-66
2023/10/26 00:54:40;;;;;;;0.00;0.00;;;12.60;99.90;;;;;;5091597;28;20211;-65
2023/10/26 00:57:05;;;;;;;0.00;0.00;;;12.50;99.90;;;;;;5091785;28;20632;-64
2023/10/26 00:59:32;;;;;;;0.00;0.00;;;12.50;99.90;;;;;;5090124;28;20202;-64
2023/10/26 01:02:00;;;;;;;0.00;0.00;;;12.50;99.90;;;;;;5090937;28;20178;-64
2023/10/26 01:04:25;;;;;;;0.00;0.00;;;12.50;99.90;;;;;;5086729;28;20184;-64
2023/10/26 01:06:51;;;;;;;0.00;0.00;;;12.50;99.90;;;;;;5091475;28;20195;-63
2023/10/26 01:09:17;;;;;;;0.00;0.00;;;12.50;99.90;;;;;;5091355;28;20263;-63
2023/10/26 01:11:42;;;;;;;0.00;0.00;;;12.50;99.90;;;;;;5091570;28;20187;-64
2023/10/26 01:14:08;;;;;;;0.00;0.00;;;12.50;99.90;;;;;;5091667;28;20270;-64
2023/10/26 01:16:35;;;;;;;0.00;0.00;;;12.50;99.90;;;;;;5091218;28;20191;-64
2023/10/26 01:19:05;;;;;;;0.00;0.00;;;12.50;99.90;;;;;;5091615;28;20202;-64
2023/10/26 01:21:31;;;;;;;0.00;0.00;;;12.50;99.90;;;;;;5091443;28;20180;-64
2023/10/26 01:23:57;;;;;;;0.00;0.00;;;12.50;99.90;;;;;;5091420;28;20180;-65
2023/10/26 01:26:23;;;;;;;0.00;0.00;;;12.50;99.90;;;;;;5091419;28;20191;-64
2023/10/26 01:28:49;;;;;;;0.00;0.00;;;12.50;99.90;;;;;;5091467;28;20183;-64
2023/10/26 01:31:16;;;;;;;0.00;0.00;;;12.50;99.90;;;;;;5091406;28;20581;-64
2023/10/26 01:33:42;;;;;;;0.00;0.00;;;12.50;99.90;;;;;;5088541;28;20268;-64
2023/10/26 01:36:08;;;;;;;0.00;0.00;;;12.50;99.90;;;;;;5091542;28;20685;-64
2023/10/26 01:38:34;;;;;;;0.00;0.00;;;12.50;99.90;;;;;;5091118;28;20180;-64
2023/10/26 01:41:00;;;;;;;0.00;0.00;;;12.50;99.90;;;;;;5090774;28;20203;-64
2023/10/26 01:43:25;;;;;;;0.00;0.00;;;12.50;99.90;;;;;;5090958;28;20332;-64
2023/10/26 01:45:51;;;;;;;0.00;0.00;;;12.50;99.90;;;;;;5091117;28;20168;-64
2023/10/26 01:48:16;;;;;;;0.00;0.00;;;12.50;99.90;;;;;;5091037;28;20179;-64
2023/10/26 01:50:42;;;;;;;0.00;0.00;;;12.50;99.90;;;;;;5091327;28;20659;-65
2023/10/26 01:53:07;;;;;;;0.00;0.00;;;12.50;99.90;;;;;;5091292;28;20176;-65
2023/10/26 01:55:33;;;;;;;0.00;0.00;;;12.50;99.90;;;;;;5090868;28;20207;-64
2023/10/26 01:57:59;;;;;;;0.00;0.00;;;12.50;99.90;;;;;;5091249;28;20673;-65
2023/10/26 02:00:24;;;;;;;0.00;0.00;;;12.50;99.90;;;;;;5090965;28;20545;-65
2023/10/26 02:02:50;;;;;;;0.00;0.00;;;12.50;99.90;;;;;;5090866;28;20252;-65
2023/10/26 02:05:16;;;;;;;0.00;0.00;;;12.50;99.90;;;;;;5090584;28;20184;-65
2023/10/26 02:07:42;;;;;;;0.00;0.00;;;12.50;99.90;;;;;;5091158;28;20175;-64
2023/10/26 02:10:12;;;;;;;0.00;0.00;;;12.50;99.90;;;;;;5090556;28;20240;-65
2023/10/26 02:12:37;;;;;;;0.00;0.00;;;12.50;99.90;;;;;;5090879;28;20219;-64
2023/10/26 02:15:03;;;;;;;0.00;0.00;;;12.40;99.90;;;;;;5090795;28;20842;-65
2023/10/26 02:17:29;;;;;;;0.00;0.00;;;12.40;99.90;;;;;;5090501;28;20262;-65
2023/10/26 02:19:54;;;;;;;0.00;0.00;;;12.50;99.90;;;;;;5090585;28;20187;-65
2023/10/26 02:22:20;;;;;;;0.00;0.00;;;12.40;99.90;;;;;;5090921;28;20199;-65
2023/10/26 02:24:45;;;;;;;0.00;0.00;;;12.40;99.90;;;;;;5090863;28;20180;-64
2023/10/26 02:27:11;;;;;;;0.00;0.00;;;12.40;99.90;;;;;;5090885;28;20296;-64
2023/10/26 02:29:36;;;;;;;0.00;0.00;;;12.40;99.90;;;;;;5089598;28;20172;-65
2023/10/26 02:32:02;;;;;;;0.00;0.00;;;12.40;99.90;;;;;;5090770;28;20699;-64
2023/10/26 02:34:28;;;;;;;0.00;0.00;;;12.40;99.90;;;;;;5089631;28;20338;-63
2023/10/26 02:36:54;;;;;;;0.00;0.00;;;12.40;99.90;;;;;;5090810;28;20168;-63
2023/10/26 02:39:19;;;;;;;0.00;0.00;;;12.40;99.90;;;;;;5090760;28;20242;-64
2023/10/26 02:41:45;;;;;;;0.00;0.00;;;12.40;99.90;;;;;;5090872;28;20172;-65
2023/10/26 02:44:10;;;;;;;0.00;0.00;;;12.40;99.90;;;;;;5090755;28;20251;-64
2023/10/26 02:46:36;;;;;;;0.00;0.00;;;12.40;99.90;;;;;;5090759;28;20654;-64
2023/10/26 02:49:01;;;;;;;0.00;0.00;;;12.40;99.90;;;;;;5090400;28;20180;-64
2023/10/26 02:51:27;;;;;;;0.00;0.00;;;12.40;99.90;;;;;;5092494;28;20194;-65
2023/10/26 02:53:52;;;;;;;0.00;0.00;;;12.40;99.90;;;;;;5094416;28;20213;-65
2023/10/26 02:56:18;;;;;;;0.00;0.00;;;12.40;99.90;;;;;;5092891;28;20679;-64
2023/10/26 02:58:44;;;;;;;0.00;0.00;;;12.40;99.90;;;;;;5092728;28;20181;-65
2023/10/26 03:01:09;;;;;;;0.00;0.00;;;12.30;99.90;;;;;;5094071;28;20191;-65
2023/10/26 03:03:35;;;;;;;0.00;0.00;;;12.30;99.90;;;;;;5094032;28;20176;-65
2023/10/26 03:06:00;;;;;;;0.00;0.00;;;12.40;99.90;;;;;;5092718;28;20283;-64
2023/10/26 03:08:26;;;;;;;0.00;0.00;;;12.40;99.90;;;;;;5093790;28;20180;-64
2023/10/26 03:10:51;;;;;;;0.00;0.00;;;12.30;99.90;;;;;;5092592;28;20180;-64
2023/10/26 03:13:17;;;;;;;0.00;0.00;;;12.30;99.90;;;;;;5093750;28;20176;-64
2023/10/26 03:15:42;;;;;;;0.00;0.00;;;12.30;99.90;;;;;;5093622;28;20219;-63
2023/10/26 03:18:08;;;;;;;0.00;0.00;;;12.30;99.90;;;;;;5093331;28;20594;-64
2023/10/26 03:20:34;;;;;;;0.00;0.00;;;12.30;99.90;;;;;;5093324;28;20192;-65
2023/10/26 03:22:59;;;;;;;0.00;0.00;;;12.30;99.90;;;;;;5093140;28;20259;-64
2023/10/26 03:25:25;;;;;;;0.00;0.00;;;12.30;99.90;;;;;;5093485;28;20647;-64
2023/10/26 03:27:50;;;;;;;0.00;0.00;;;12.30;99.90;;;;;;5093311;28;20168;-64
2023/10/26 03:30:17;;;;;;;0.00;0.00;;;12.30;99.90;;;;;;5092451;28;20583;-64
2023/10/26 03:32:44;;;;;;;0.00;0.00;;;12.30;99.90;;;;;;5093565;28;20278;-64
2023/10/26 03:35:09;;;;;;;0.00;0.00;;;12.20;99.90;;;;;;5093373;28;20228;-65
2023/10/26 03:37:38;;;;;;;0.00;0.00;;;12.20;99.90;;;;;;5092833;28;20191;-65
2023/10/26 03:40:07;;;;;;;0.00;0.00;;;12.20;99.90;;;;;;5093582;28;20172;-65
2023/10/26 03:42:33;;;;;;;0.00;0.00;;;12.20;99.90;;;;;;5092513;28;20172;-63
2023/10/26 03:44:58;;;;;;;0.00;0.00;;;12.20;99.90;;;;;;5093042;28;20187;-63
2023/10/26 03:47:24;;;;;;;0.00;0.00;;;12.20;99.90;;;;;;5092731;28;20651;-62
2023/10/26 03:49:52;;;;;;;0.00;0.00;;;12.10;99.90;;;;;;5092078;28;20188;-63
2023/10/26 03:52:19;;;;;;;0.00;0.00;;;12.10;99.90;;;;;;5093198;28;20532;-63
2023/10/26 03:54:44;;;;;;;0.00;0.00;;;12.10;99.90;;;;;;5093216;28;20219;-63
2023/10/26 03:57:10;;;;;;;0.00;0.00;;;12.10;99.90;;;;;;5092409;28;20184;-65
2023/10/26 03:59:35;;;;;;;0.00;0.00;;;12.10;99.90;;;;;;5092990;28;20828;-61
2023/10/26 04:02:01;;;;;;;0.00;0.00;;;12.10;99.90;;;;;;5092693;28;20667;-61
2023/10/26 04:04:26;;;;;;;0.00;0.00;;;12.10;99.90;;;;;;5092488;28;20203;-60
2023/10/26 04:06:52;;;;;;;0.00;0.00;;;12.10;99.90;;;;;;5092071;28;20726;-64
2023/10/26 04:09:17;;;;;;;0.00;0.00;;;12.00;99.90;;;;;;5092728;28;20184;-63
2023/10/26 04:11:44;;;;;;;0.00;0.00;;;12.00;99.90;;;;;;5092594;28;20548;-64
2023/10/26 04:14:10;;;;;;;0.00;0.00;;;12.00;99.90;;;;;;5093286;28;20517;-62
2023/10/26 04:16:36;;;;;;;0.00;0.00;;;11.90;99.90;;;;;;5092957;28;20197;-63
2023/10/26 04:19:01;;;;;;;0.00;0.00;;;11.90;99.90;;;;;;5092956;28;20168;-63
2023/10/26 04:21:27;;;;;;;0.00;0.00;;;11.90;99.90;;;;;;5091348;28;20541;-64
2023/10/26 04:23:52;;;;;;;0.00;0.00;;;11.80;99.90;;;;;;5092819;28;20177;-63
2023/10/26 04:26:18;;;;;;;0.00;0.00;;;11.80;99.90;;;;;;5092628;28;20187;-64
2023/10/26 04:28:43;;;;;;;0.05;0.05;;;11.80;99.90;;;;;;5092668;28;20180;-63
2023/10/26 04:31:09;;;;;;;0.00;0.00;;;11.70;99.90;;;;;;5092490;28;20253;-64
2023/10/26 04:33:34;;;;;;;0.00;0.00;;;11.70;99.90;;;;;;5091109;28;20234;-63
2023/10/26 04:36:00;;;;;;;0.00;0.00;;;11.70;99.90;;;;;;5092480;28;20208;-63
2023/10/26 04:38:26;;;;;;;0.00;0.00;;;11.60;99.90;;;;;;5092353;28;20674;-63
2023/10/26 04:40:52;;;;;;;0.00;0.00;;;11.60;99.90;;;;;;5092530;28;20188;-63
2023/10/26 04:43:17;;;;;;;0.00;0.00;;;11.50;99.90;;;;;;5092213;28;20168;-63
2023/10/26 04:45:43;;;;;;;0.00;0.00;;;11.50;99.90;;;;;;5092492;28;20180;-63
2023/10/26 04:48:08;;;;;;;0.00;0.00;;;11.50;99.90;;;;;;5092422;28;20251;-63
2023/10/26 04:50:34;;;;;;;0.00;0.00;;;11.50;99.90;;;;;;5092305;28;20176;-63
2023/10/26 04:53:02;;;;;;;0.00;0.00;;;11.50;99.90;;;;;;5092440;28;20210;-62
2023/10/26 04:55:30;;;;;;;0.00;0.00;;;11.50;99.90;;;;;;5092082;28;20206;-62
2023/10/26 04:57:56;;;;;;;0.13;0.05;;;11.40;99.90;;;;;;5092304;28;20191;-62
2023/10/26 05:00:22;;;;;;;0.00;0.00;;;11.40;99.90;;;;;;5090943;28;20176;-64
2023/10/26 05:02:47;;;;;;;0.00;0.00;;;11.40;99.90;;;;;;5090734;28;20263;-64
2023/10/26 05:05:13;;;;;;;0.00;0.00;;;11.30;99.90;;;;;;5092160;28;20176;-64
2023/10/26 05:07:38;;;;;;;0.00;0.00;;;11.30;99.90;;;;;;5091890;28;20183;-64
2023/10/26 05:10:05;;;;;;;0.00;0.00;;;11.30;99.90;;;;;;5092034;28;20639;-64
2023/10/26 05:12:31;;;;;;;0.00;0.00;;;11.20;99.90;;;;;;5092106;28;20172;-63
2023/10/26 05:14:56;;;;;;;0.00;0.00;;;11.20;99.90;;;;;;5091070;28;20575;-63
2023/10/26 05:17:22;;;;;;;0.00;0.00;;;11.20;99.90;;;;;;5090553;28;20631;-63
2023/10/26 05:19:47;;;;;;;0.00;0.00;;;11.20;99.90;;;;;;5091801;28;20283;-63
2023/10/26 05:22:13;;;;;;;0.00;0.00;;;11.20;99.90;;;;;;5091738;28;20176;-63
2023/10/26 05:24:39;;;;;;;0.00;0.00;;;11.20;99.90;;;;;;5091758;28;20552;-63
2023/10/26 05:27:04;;;;;;;0.00;0.00;;;11.20;99.90;;;;;;5091870;28;20179;-62
2023/10/26 05:29:30;;;;;;;0.00;0.00;;;11.10;99.90;;;;;;5091712;28;20263;-64
2023/10/26 05:31:55;;;;;;;0.00;0.00;;;11.00;99.90;;;;;;5091494;28;20703;-63
2023/10/26 05:34:24;;;;;;;0.00;0.00;;;10.90;99.90;;;;;;5091629;28;20172;-64
2023/10/26 05:36:49;;;;;;;0.00;0.00;;;10.90;99.90;;;;;;5091523;28;20230;-63
2023/10/26 05:39:15;;;;;;;0.00;0.00;;;10.90;99.90;;;;;;5091582;28;20176;-63
2023/10/26 05:41:42;;;;;;;0.00;0.00;;;10.90;99.90;;;;;;5091477;28;20199;-63
2023/10/26 05:44:07;;;;;;;0.00;0.00;;;10.80;99.90;;;;;;5091423;28;20183;-63
2023/10/26 05:46:34;;;;;;;0.00;0.00;;;10.80;99.90;;;;;;5090133;28;20580;-63
2023/10/26 05:48:59;;;;;;;0.00;0.00;;;10.90;99.90;;;;;;5091444;28;20179;-63
2023/10/26 05:51:25;;;;;;;0.70;0.70;;;10.80;99.90;;;;;;5089942;28;20188;-63
2023/10/26 05:53:50;;;;;;;0.00;0.00;;;10.80;99.90;;;;;;5091494;28;20172;-65
2023/10/26 05:56:16;;;;;;;0.00;0.00;;;10.80;99.90;;;;;;5091304;28;20260;-64
2023/10/26 05:58:41;;;;;;;0.00;0.00;;;10.80;99.90;;;;;;5091195;28;20570;-63
2023/10/26 06:01:07;;;;;;;0.00;0.00;;;10.80;99.90;;;;;;5091169;28;20176;-63
2023/10/26 06:03:32;;;;;;;0.00;0.00;;;10.90;99.90;;;;;;5091177;28;20180;-63
2023/10/26 06:05:59;;;;;;;0.00;0.00;;;10.90;99.90;;;;;;5091131;28;20169;-63
2023/10/26 06:08:25;;;;;;;0.00;0.00;;;10.90;99.90;;;;;;5090550;28;20216;-63
2023/10/26 06:10:51;;;;;;;0.00;0.00;;;10.90;99.90;;;;;;5091119;28;20168;-63
2023/10/26 06:13:17;;;;;;;0.00;0.00;;;11.00;99.90;;;;;;5091269;28;20714;-63
2023/10/26 06:15:42;;;;;;;0.00;0.00;;;11.00;99.90;;;;;;5091158;28;20230;-64
2023/10/26 06:18:09;;;;;;;0.00;0.00;;;11.00;99.90;;;;;;5091042;28;20540;-63
2023/10/26 06:20:35;;;;;;;0.00;0.00;;;11.00;99.90;;;;;;5091108;28;20177;-63
2023/10/26 06:23:00;;;;;;;0.03;0.03;;;11.00;99.90;;;;;;5090845;28;20250;-63
2023/10/26 06:25:28;;;;;;;0.00;0.00;;;11.10;99.90;;;;;;5091573;28;20184;-62
2023/10/26 06:27:53;;;;;;;0.08;0.08;;;11.10;99.90;;;;;;5095162;28;20164;-63
2023/10/26 06:30:19;;;;;;;0.00;0.00;;;11.10;99.90;;;;;;5094970;28;20176;-64
2023/10/26 06:32:45;;;;;;;0.00;0.00;;;11.10;99.90;;;;;;5094939;28;20244;-63
2023/10/26 06:35:10;;;;;;;0.00;0.00;;;11.20;99.90;;;;;;5094788;28;20545;-63
2023/10/26 06:37:37;;;;;;;0.00;0.00;;;11.20;99.90;;;;;;5093687;28;20369;-63
2023/10/26 06:40:04;;;;;;;0.00;0.00;;;11.30;99.90;;;;;;5095004;28;20260;-63
2023/10/26 06:42:29;;;;;;;0.00;0.00;;;11.30;99.90;;;;;;5094789;28;20235;-63
2023/10/26 06:44:55;;;;;;;0.00;0.00;;;11.40;99.90;;;;;;5094852;28;20537;-63
2023/10/26 06:47:21;;;;;;;0.00;0.00;;;11.50;99.90;;;;;;5094768;28;20186;-63
2023/10/26 06:49:47;;;;;;;0.00;0.00;;;11.50;99.90;;;;;;5094686;28;20180;-63
2023/10/26 06:52:12;;;;;;;0.00;0.00;;;11.50;99.90;;;;;;5093525;28;20171;-63
2023/10/26 06:54:38;;;;;;;0.00;0.00;;;11.50;99.90;;;;;;5076294;28;20686;-63
2023/10/26 06:57:04;;;;;;;0.00;0.00;;;11.50;99.90;;;;;;5094613;28;20245;-63
2023/10/26 06:59:29;;;;;;;0.00;0.00;;;11.60;99.90;;;;;;5094337;28;20305;-64
2023/10/26 07:01:55;;;;;;;0.00;0.00;;;11.60;99.90;;;;;;5094407;28;20196;-63
2023/10/26 07:04:21;;;;;;;0.00;0.00;;;11.70;99.90;;;;;;5094421;28;20180;-63
2023/10/26 07:06:47;;;;;;;0.00;0.00;;;11.70;99.90;;;;;;5094174;28;20191;-63
2023/10/26 07:09:12;;;;;;;0.00;0.00;;;11.70;99.90;;;;;;5094316;28;20184;-63
2023/10/26 07:11:37;;;;;;;0.00;0.00;;;11.70;99.90;;;;;;5093024;28;20180;-63
2023/10/26 07:14:03;;;;;;;0.00;0.00;;;11.70;99.90;;;;;;5094246;28;20543;-63
2023/10/26 07:16:29;;;;;;;0.00;0.00;;;11.70;99.90;;;;;;5093988;28;20218;-63
2023/10/26 07:18:55;;;;;;;0.57;0.55;;;11.70;99.90;;;;;;5094186;28;20172;-63
2023/10/26 07:21:21;;;;;;;0.00;0.00;;;11.80;99.90;;;;;;5094120;28;20195;-63
2023/10/26 07:23:46;;;;;;;0.00;0.00;;;11.80;99.90;;;;;;5092823;28;20237;-63
2023/10/26 07:26:17;;;;;;;0.00;0.00;;;11.90;99.90;;;;;;5093998;28;20176;-64
2023/10/26 07:28:42;;;;;;;0.00;0.00;;;11.90;99.90;;;;;;5094113;28;20180;-64
2023/10/26 07:31:08;;;;;;;0.00;0.00;;;11.90;99.90;;;;;;5093757;28;20230;-63
2023/10/26 07:33:33;;;;;;;0.00;0.00;;;11.90;99.90;;;;;;5092367;28;20297;-64
2023/10/26 07:35:59;;;;;;;0.00;0.00;;;11.90;99.90;;;;;;5093730;28;20603;-64
2023/10/26 07:38:26;;;;;;;0.00;0.00;;;11.90;99.90;;;;;;5092672;28;20294;-64
2023/10/26 07:40:54;;;;;;;0.00;0.00;;;11.90;99.90;;;;;;5093822;28;20666;-63
2023/10/26 07:43:20;;;;;;;0.10;0.10;;;11.90;99.90;;;;;;5093608;28;20172;-63
2023/10/26 07:45:47;;;;;;;0.00;0.00;;;11.90;99.90;;;;;;5093814;28;20297;-64
2023/10/26 07:48:12;;;;;;;0.00;0.00;;;12.00;99.90;;;;;;5093681;28;20172;-64
2023/10/26 07:50:38;;;;;;;0.00;0.00;;;11.90;99.90;;;;;;5093492;28;20275;-63
2023/10/26 07:53:05;;;;;;;1.00;0.30;;;12.00;99.90;;;;;;5093607;28;20263;-64
2023/10/26 07:55:31;;;;;;;0.00;0.00;;;12.00;99.90;;;;;;5093214;28;20730;-64
2023/10/26 07:57:57;;;;;;;0.00;0.00;;;12.00;99.90;;;;;;5093406;28;20267;-64
2023/10/26 08:00:22;;;;;;;1.65;0.22;;;12.00;99.90;;;;;;5093311;28;20176;-64
2023/10/26 08:02:48;;;;;;;0.00;0.00;;;12.00;99.90;;;;;;5093239;28;20229;-64
2023/10/26 08:05:15;;;;;;;0.00;0.00;;;12.10;99.90;;;;;;5093325;28;20208;-63
2023/10/26 08:07:41;;;;;;;0.00;0.00;;;12.10;99.90;;;;;;5093031;28;20565;-64
2023/10/26 08:10:09;;;;;;;0.00;0.00;;;12.10;99.90;;;;;;5093103;28;20180;-64
2023/10/26 08:12:35;;;;;;;0.00;0.00;;;12.10;99.90;;;;;;5093023;28;20674;-64
2023/10/26 08:15:02;;;;;;;0.00;0.00;;;12.10;99.90;;;;;;5093227;28;20212;-64
2023/10/26 08:17:28;;;;;;;0.00;0.00;;;12.10;99.90;;;;;;5093016;28;20176;-64
2023/10/26 08:19:54;;;;;;;0.00;0.00;;;12.20;99.90;;;;;;5093117;28;20176;-64
2023/10/26 08:22:23;;;;;;;0.00;0.00;;;12.30;99.90;;;;;;5093329;28;20188;-64
2023/10/26 08:24:48;;;;;;;0.00;0.00;;;12.40;99.90;;;;;;5093449;28;20194;-64
2023/10/26 08:27:14;;;;;;;0.00;0.00;;;12.50;99.90;;;;;;5093561;28;20555;-63
2023/10/26 08:29:40;;;;;;;0.00;0.00;;;12.70;99.90;;;;;;5093825;28;20670;-64
2023/10/26 08:32:05;;;;;;;0.00;0.00;;;12.80;99.90;;;;;;5093702;28;20251;-63
2023/10/26 08:34:31;;;;;;;0.00;0.00;;;13.00;99.90;;;;;;5093653;28;20713;-63
2023/10/26 08:36:59;;;;;;;0.15;0.15;;;13.20;99.90;;;;;;5093075;28;20173;-63
2023/10/26 08:39:25;;;;;;;0.00;0.00;;;13.30;99.90;;;;;;5093269;28;20165;-63
2023/10/26 08:41:50;;;;;;;0.00;0.00;;;13.50;99.90;;;;;;5092790;28;20176;-64
2023/10/26 08:44:17;;;;;;;0.00;0.00;;;13.60;99.90;;;;;;5092446;28;20276;-65
2023/10/26 08:46:48;;;;;;;0.00;0.00;;;13.70;99.90;;;;;;5092441;28;20591;-64
2023/10/26 08:49:15;;;;;;;0.00;0.00;;;13.90;99.90;;;;;;5092435;28;20183;-65
2023/10/26 08:51:40;;;;;;;0.00;0.00;;;14.00;99.90;;;;;;5092488;28;20210;-64
2023/10/26 08:54:06;;;;;;;0.00;0.00;;;14.10;99.90;;;;;;5092436;28;20710;-65
2023/10/26 08:56:32;;;;;;;0.00;0.00;;;14.10;99.90;;;;;;5092090;28;20690;-64
2023/10/26 08:58:58;;;;;;;0.00;0.00;;;14.10;99.90;;;;;;5092361;28;20172;-64
2023/10/26 09:01:24;;;;;;;0.00;0.00;;;14.10;99.90;;;;;;5092167;28;20173;-64
2023/10/26 09:03:49;;;;;;;0.00;0.00;;;14.10;99.90;;;;;;5092098;28;20172;-64
2023/10/26 09:06:15;;;;;;;0.00;0.00;;;14.10;99.90;;;;;;5092045;28;20532;-64
2023/10/26 09:08:41;;;;;;;0.00;0.00;;;14.10;99.90;;;;;;5091761;28;20188;-64
2023/10/26 09:11:26;;;;;;;0.00;0.00;;;14.00;99.90;;;;;;5091980;28;20188;-64
2023/10/26 09:13:52;;;;;;;0.00;0.00;;;13.90;99.90;;;;;;5091965;28;20255;-63
2023/10/26 09:16:18;;;;;;;0.00;0.00;;;13.90;99.90;;;;;;5091832;28;20207;-64
2023/10/26 09:18:50;;;;;;;0.00;0.00;;;13.80;99.90;;;;;;5091930;28;20590;-64
2023/10/26 09:21:16;;;;;;;0.00;0.00;;;13.80;99.90;;;;;;5090554;28;20180;-64
2023/10/26 09:23:42;;;;;;;0.00;0.00;;;13.70;99.90;;;;;;5091953;28;20172;-63
2023/10/26 09:26:09;;;;;;;0.00;0.00;;;13.70;99.90;;;;;;5091815;28;20702;-63
2023/10/26 09:28:55;;;;;;;0.00;0.00;;;13.60;99.90;;;;;;5090553;28;20300;-63
2023/10/26 09:31:23;;;;;;;0.00;0.00;;;13.60;99.90;;;;;;5091555;28;20183;-63
2023/10/26 09:33:49;;;;;;;0.00;0.00;;;13.60;99.90;;;;;;5091471;28;20223;-63
2023/10/26 09:36:20;;;;;;;0.00;0.00;;;13.50;99.90;;;;;;5091616;28;20273;-63
2023/10/26 09:38:47;;;;;;;0.00;0.00;;;13.50;99.90;;;;;;5091687;28;20264;-63
2023/10/26 09:41:15;;;;;;;0.00;0.00;;;13.40;99.90;;;;;;5091708;28;20187;-63
2023/10/26 09:43:42;;;;;;;0.00;0.00;;;13.30;99.90;;;;;;5091470;28;20702;-63
2023/10/26 09:46:11;;;;;;;0.00;0.00;;;13.20;99.90;;;;;;5091438;28;20191;-63
2023/10/26 09:48:37;;;;;;;0.00;0.00;;;13.20;99.90;;;;;;5091416;28;20192;-63
2023/10/26 09:51:04;;;;;;;0.00;0.00;;;13.10;99.90;;;;;;5091585;28;20262;-63
2023/10/26 09:53:37;;;;;;;0.00;0.00;;;13.00;99.90;;;;;;5091294;28;20184;-63
2023/10/26 09:56:05;;;;;;;0.00;0.00;;;12.90;99.90;;;;;;5091385;28;20235;-63
2023/10/26 09:58:40;;;;;;;0.00;0.00;;;12.80;99.90;;;;;;5091282;28;20180;-63
2023/10/26 10:01:36;;;;;;;0.10;0.10;;;12.80;99.90;;;;;;5090828;28;20258;-64
2023/10/26 10:04:06;;;;;;;0.00;0.00;;;12.80;99.90;;;;;;5091393;28;20255;-63
2023/10/26 10:06:46;;;;;;;0.00;0.00;;;12.80;99.90;;;;;;5091227;28;20164;-63
2023/10/26 10:09:11;;;;;;;0.00;0.00;;;12.80;99.90;;;;;;5091017;28;20532;-63
2023/10/26 10:11:38;;;;;;;0.00;0.00;;;12.80;99.90;;;;;;5091136;28;20176;-62
2023/10/26 10:14:04;;;;;;;0.00;0.00;;;12.90;99.90;;;;;;5091295;28;20169;-63
2023/10/26 10:16:36;;;;;;;0.00;0.00;;;13.10;99.90;;;;;;5090973;28;20215;-63
2023/10/26 10:19:18;;;;;;;0.22;0.22;;;13.20;99.90;;;;;;5091175;28;20196;-63
2023/10/26 10:21:44;;;;;;;0.00;0.00;;;13.40;99.90;;;;;;5091124;28;20175;-63
2023/10/26 10:24:09;;;;;;;0.00;0.00;;;13.60;99.90;;;;;;5091057;28;20168;-63
2023/10/26 10:27:10;;;;;;;0.00;0.00;;;13.70;99.90;;;;;;5089742;28;20190;-63
2023/10/26 10:29:35;;;;;;;0.00;0.00;;;13.70;99.90;;;;;;5090937;28;20183;-64
2023/10/26 10:32:01;;;;;;;0.00;0.00;;;13.80;99.90;;;;;;5090906;28;20228;-64
2023/10/26 10:34:29;;;;;;;0.00;0.00;;;13.90;99.90;;;;;;5090754;28;20656;-64
2023/10/26 10:37:23;;;;;;;0.00;0.00;;;13.90;99.90;;;;;;5091149;28;20180;-63
2023/10/26 10:40:17;;;;;;;0.00;0.00;;;13.90;99.90;;;;;;5091030;28;20297;-63
2023/10/26 10:42:51;;;;;;;0.00;0.00;;;13.90;99.90;;;;;;5090921;28;20229;-63
2023/10/26 10:45:18;;;;;;;0.00;0.00;;;13.90;99.90;;;;;;5090901;28;20688;-64
2023/10/26 10:47:46;;;;;;;0.00;0.00;;;13.90;99.90;;;;;;5090934;28;20172;-62
2023/10/26 10:50:18;;;;;;;0.00;0.00;;;13.80;99.90;;;;;;5090913;28;20638;-63
2023/10/26 10:52:47;;;;;;;0.00;0.00;;;13.80;99.90;;;;;;5090770;28;20260;-63
2023/10/26 10:55:27;;;;;;;0.00;0.00;;;13.70;99.90;;;;;;5090880;28;20211;-63
2023/10/26 10:57:57;;;;;;;0.00;0.00;;;13.70;99.90;;;;;;5090959;28;20510;-63
2023/10/26 11:00:24;;;;;;;0.00;0.00;;;13.60;99.90;;;;;;5089454;28;20639;-63
2023/10/26 11:02:52;;;;;;;0.00;0.00;;;13.60;99.90;;;;;;5090742;28;20267;-63
2023/10/26 11:05:18;;;;;;;0.00;0.00;;;13.60;99.90;;;;;;5090783;28;20179;-63
2023/10/26 11:07:43;;;;;;;0.00;0.00;;;13.60;99.90;;;;;;5090606;28;20644;-63
2023/10/26 11:10:10;;;;;;;0.00;0.00;;;13.50;99.90;;;;;;5090594;28;20176;-63
2023/10/26 11:12:35;;;;;;;0.00;0.00;;;13.40;99.90;;;;;;5091268;28;20206;-63
2023/10/26 11:15:01;;;;;;;0.00;0.00;;;13.40;99.90;;;;;;5094245;28;20208;-63
2023/10/26 11:17:28;;;;;;;0.70;0.20;;;13.40;99.90;;;;;;5094039;28;20184;-63
2023/10/26 11:19:54;;;;;;;0.00;0.00;;;13.40;99.90;;;;;;5094222;28;20215;-64
2023/10/26 11:22:21;;;;;;;0.10;0.10;;;13.40;99.90;;;;;;5092928;28;20588;-63
2023/10/26 11:24:48;;;;;;;0.10;0.10;;;13.40;99.90;;;;;;5094020;28;20689;-63
2023/10/26 11:27:15;;;;;;;0.55;0.17;;;13.50;99.90;;;;;;5094025;28;20539;-63
2023/10/26 11:29:42;;;;;;;0.00;0.00;;;13.60;99.90;;;;;;5094046;28;20160;-63
2023/10/26 11:32:22;;;;;;;0.00;0.00;;;13.60;99.90;;;;;;5093748;28;20235;-62
2023/10/26 11:35:13;;;;;;;0.00;0.00;;;13.70;99.90;;;;;;5093710;28;20235;-63
2023/10/26 11:37:47;;;;;;;0.00;0.00;;;13.80;99.90;;;;;;5093864;28;20897;-62
2023/10/26 11:40:16;;;;;;;0.00;0.00;;;13.80;99.90;;;;;;5093938;28;20171;-62
2023/10/26 11:42:52;;;;;;;0.00;0.00;;;13.80;99.90;;;;;;5093730;28;20183;-62
2023/10/26 11:45:20;;;;;;;0.00;0.00;;;13.90;99.90;;;;;;5093818;28;20172;-63
2023/10/26 11:47:51;;;;;;;0.00;0.00;;;14.10;99.90;;;;;;5093774;28;20172;-63
2023/10/26 11:50:19;;;;;;;0.00;0.00;;;14.10;99.90;;;;;;5093642;28;20184;-64
2023/10/26 11:52:45;;;;;;;0.10;0.10;;;14.20;99.90;;;;;;5093681;28;20195;-63
2023/10/26 11:55:10;;;;;;;0.00;0.00;;;14.20;99.90;;;;;;5093311;28;20663;-63
2023/10/26 11:57:36;;;;;;;0.10;0.10;;;14.20;99.90;;;;;;5093523;28;20176;-62
2023/10/26 12:00:05;;;;;;;0.00;0.00;;;14.20;99.90;;;;;;5093430;28;20260;-63
2023/10/26 12:02:32;;;;;;;0.00;0.00;;;14.20;99.90;;;;;;5093264;28;20183;-63
2023/10/26 12:05:03;;;;;;;0.00;0.00;;;14.30;99.90;;;;;;5093351;28;20176;-63
2023/10/26 12:07:28;;;;;;;0.52;0.28;;;14.40;99.90;;;;;;5093043;28;20188;-63
2023/10/26 12:09:54;;;;;;;0.00;0.00;;;14.40;99.90;;;;;;5093176;28;20234;-64
2023/10/26 12:12:19;;;;;;;0.00;0.00;;;14.50;99.90;;;;;;5093062;28;20176;-63
2023/10/26 12:14:47;;;;;;;0.00;0.00;;;14.60;99.90;;;;;;5092938;28;20291;-63
2023/10/26 12:17:12;;;;;;;0.00;0.00;;;14.60;99.90;;;;;;5091867;28;20181;-63
2023/10/26 12:19:38;;;;;;;0.00;0.00;;;14.70;99.90;;;;;;5093004;28;20230;-64
2023/10/26 12:22:03;;;;;;;0.00;0.00;;;14.80;99.90;;;;;;5093038;28;20172;-64
2023/10/26 12:24:29;;;;;;;0.00;0.00;;;14.90;99.90;;;;;;5092285;28;20176;-63
2023/10/26 12:26:58;;;;;;;0.00;0.00;;;15.10;99.90;;;;;;5091695;28;20245;-63
2023/10/26 12:29:23;;;;;;;0.00;0.00;;;15.20;99.90;;;;;;5092717;28;20172;-64
2023/10/26 12:31:49;;;;;;;0.00;0.00;;;15.40;99.90;;;;;;5092447;28;20229;-64
2023/10/26 12:34:15;;;;;;;0.00;0.00;;;15.50;99.90;;;;;;5092748;28;20164;-64
2023/10/26 12:36:40;;;;;;;0.00;0.00;;;15.70;99.90;;;;;;5091442;28;20607;-63
2023/10/26 12:39:06;;;;;;;0.00;0.00;;;15.90;99.90;;;;;;5091492;28;20210;-64
2023/10/26 12:41:31;;;;;;;0.00;0.00;;;16.00;99.90;;;;;;5092517;28;20184;-63
2023/10/26 12:43:57;;;;;;;0.00;0.00;;;16.10;99.90;;;;;;5092586;28;20176;-64
2023/10/26 12:46:22;;;;;;;0.00;0.00;;;16.10;99.90;;;;;;5092463;28;20674;-64